KDBN/DBN METAR and TAF weather

Enter ICAO airport designator
Station Type Date Time Source
KDBN METAR 2022/11/27 09:15 UTC NOAA

KDBN 270915Z AUTO 17005KT 1 3/4SM -RA OVC003 18/17 A2990 RMK AO2


Station Type Date Time Source
KDBN Decoded METAR 2022/11/27 09:15 UTC NOAA

Dublin, W H 'Bud' Barron Airport, GA, United States (KDBN) 32-33-52N 082-59-06W
Nov 27, 2022 - 04:15 AM EST / 2022.11.27 0915 UTC
Wind: from the S (170 degrees) at 6 MPH (5 KT):0
Visibility: 1 3/4 mile(s):0
Sky conditions: overcast
Weather: light rain
Temperature: 64 F (18 C)
Dew Point: 62 F (17 C)
Relative Humidity: 93%
Pressure (altimeter): 29.9 in. Hg (1012 hPa)
ob: KDBN 270915Z AUTO 17005KT 1 3/4SM -RA OVC003 18/17 A2990 RMK AO2
cycle: 9

Station Type Date Time Source
KDBN TAF UTC NOAA

Error!

Example: see airport list